Time;durP1;ratioP1;P1;durP2;ratioP2;P2;SDS_P1;SDS_P2;PMS_P1;PMS_P2;Temp;Humidity;BMP_temperature;BMP_pressure;BME280_temperature;BME280_humidity;BME280_pressure;Samples;Min_cycle;Max_cycle;Signal;HPM_P1;HPM_P2
2022/03/31 00:05:09;;;;;;;4.63;2.70;;;;;;;19.06;32.16;100015.06;16131576;19;129482;-49
2022/03/31 00:10:35;;;;;;;3.22;2.25;;;;;;;19.04;32.24;100009.78;16135599;19;129100;-47
2022/03/31 00:15:58;;;;;;;4.20;2.33;;;;;;;19.02;32.43;100011.16;16125966;19;129721;-44
2022/03/31 00:21:20;;;;;;;5.75;2.38;;;;;;;19.01;32.02;99998.44;16127412;19;129234;-44
2022/03/31 00:26:42;;;;;;;2.65;2.25;;;;;;;18.98;32.32;99985.91;16131942;19;130149;-46
2022/03/31 00:32:05;;;;;;;4.80;2.67;;;;;;;18.98;32.00;99997.00;16132793;19;130297;-46
2022/03/31 00:37:28;;;;;;;3.50;2.50;;;;;;;18.96;31.89;99988.13;16134540;19;129224;-46
2022/03/31 00:42:53;;;;;;;2.25;1.92;;;;;;;18.94;32.24;99982.03;16145480;19;129623;-46
2022/03/31 00:48:17;;;;;;;2.77;2.33;;;;;;;18.92;31.95;99971.22;16143841;19;129521;-49
2022/03/31 00:53:38;;;;;;;2.13;1.92;;;;;;;18.91;32.17;99979.81;16148724;19;129220;-49
2022/03/31 00:59:04;;;;;;;2.90;2.30;;;;;;;18.89;32.29;99962.63;16146367;19;129581;-46
2022/03/31 01:04:27;;;;;;;;;;;;;;;18.85;32.18;99962.34;16144023;19;129913;-46
2022/03/31 01:09:49;;;;;;;2.40;1.98;;;;;;;18.87;31.80;99964.81;16147481;19;131606;-49
2022/03/31 01:15:13;;;;;;;2.17;1.95;;;;;;;18.84;31.94;99963.44;16140056;19;129584;-46
2022/03/31 01:20:35;;;;;;;2.53;2.25;;;;;;;18.82;32.09;99954.56;16147164;19;129102;-44
2022/03/31 01:25:57;;;;;;;2.50;2.30;;;;;;;18.80;31.79;99950.41;16138444;19;130485;-50
2022/03/31 01:31:20;;;;;;;3.47;2.40;;;;;;;18.78;31.52;99947.88;16145598;19;130365;-45
2022/03/31 01:36:42;;;;;;;4.38;2.38;;;;;;;18.76;31.94;99948.16;16147918;19;129773;-45
2022/03/31 01:42:05;;;;;;;2.88;2.50;;;;;;;18.76;31.92;99944.56;16141758;19;130256;-50
2022/03/31 01:47:27;;;;;;;2.97;1.98;;;;;;;18.74;31.62;99935.69;16142991;19;131331;-47
2022/03/31 01:52:48;;;;;;;3.22;2.20;;;;;;;18.73;31.73;99936.78;16146107;19;130228;-47
2022/03/31 01:58:10;;;;;;;2.22;1.90;;;;;;;18.71;31.80;99925.97;16145519;19;129555;-44
2022/03/31 02:03:33;;;;;;;2.30;2.00;;;;;;;18.69;31.36;99922.66;16143111;19;129472;-49
2022/03/31 02:08:56;;;;;;;2.55;2.33;;;;;;;18.69;31.53;99921.81;16142529;19;130101;-49
2022/03/31 02:14:19;;;;;;;3.00;2.25;;;;;;;18.68;31.48;99915.44;16141579;19;129269;-47
2022/03/31 02:19:41;;;;;;;3.13;2.20;;;;;;;18.66;31.54;99928.72;16136111;19;129037;-48
2022/03/31 02:25:03;;;;;;;3.95;2.10;;;;;;;18.64;31.40;99941.19;16140599;19;129952;-47
2022/03/31 02:30:27;;;;;;;2.88;2.30;;;;;;;18.60;31.37;99929.78;16142662;19;130566;-49
2022/03/31 02:35:48;;;;;;;3.90;2.20;;;;;;;18.57;30.95;99930.38;16145441;19;128956;-50
2022/03/31 02:41:10;;;;;;;1.90;1.65;;;;;;;18.56;30.88;99906.53;16143424;19;130051;-45
2022/03/31 02:46:33;;;;;;;4.00;2.15;;;;;;;18.56;31.14;99901.00;16138425;19;129573;-45
2022/03/31 02:51:54;;;;;;;2.55;2.10;;;;;;;18.55;30.80;99902.09;16142460;19;129824;-48
2022/03/31 02:57:18;;;;;;;2.55;2.08;;;;;;;18.54;30.81;99908.75;16136216;19;129822;-45
2022/03/31 03:02:40;;;;;;;1.70;1.60;;;;;;;18.51;30.70;99909.28;16139622;19;128867;-46
2022/03/31 03:08:02;;;;;;;2.70;1.95;;;;;;;18.49;30.79;99905.94;16140397;19;129484;-48
2022/03/31 03:13:24;;;;;;;2.88;2.10;;;;;;;18.46;30.79;99894.28;16138664;19;129642;-47
2022/03/31 03:18:45;;;;;;;2.15;1.95;;;;;;;18.41;30.29;99899.81;16139114;19;129383;-47
2022/03/31 03:24:07;;;;;;;2.63;1.88;;;;;;;18.37;30.59;99906.13;16136660;19;129285;-46
2022/03/31 03:29:29;;;;;;;3.55;2.20;;;;;;;18.34;30.16;99906.66;16140243;19;130698;-46
2022/03/31 03:34:51;;;;;;;2.92;1.85;;;;;;;18.30;30.14;99909.97;16139082;19;129186;-48
2022/03/31 03:40:15;;;;;;;4.88;2.38;;;;;;;18.25;30.37;99903.56;16137587;19;129096;-47
2022/03/31 03:45:38;;;;;;;6.50;3.80;;;;;;;18.22;30.08;99909.63;16133809;19;129933;-47
2022/03/31 03:51:00;;;;;;;4.45;2.60;;;;;;;18.19;29.61;99921.28;16137496;19;129422;-45
2022/03/31 03:56:22;;;;;;;6.05;2.45;;;;;;;18.28;29.59;99922.44;16138617;19;129423;-45
2022/03/31 04:01:43;;;;;;;1.70;1.60;;;;;;;18.60;29.38;99930.66;16138707;19;129158;-50
2022/03/31 04:07:05;;;;;;;1.92;1.60;;;;;;;19.13;28.63;99926.09;16136993;19;129328;-46
2022/03/31 04:12:27;;;;;;;2.38;1.45;;;;;;;19.67;27.74;99933.94;16134145;19;129467;-50
2022/03/31 04:17:49;;;;;;;1.60;1.27;;;;;;;19.96;26.88;99927.00;16132558;19;130304;-45
2022/03/31 04:23:11;;;;;;;1.10;1.02;;;;;;;20.05;26.76;99918.97;16135131;19;129958;-46
2022/03/31 04:28:32;;;;;;;2.13;1.17;;;;;;;20.04;26.37;99920.06;16137096;19;128998;-47
2022/03/31 04:33:55;;;;;;;1.17;1.00;;;;;;;19.96;26.28;99919.47;16136244;19;131904;-46
2022/03/31 04:39:17;;;;;;;1.20;0.82;;;;;;;19.86;26.17;99933.38;16133683;19;129284;-48
2022/03/31 04:44:38;;;;;;;0.88;0.77;;;;;;;19.75;26.15;99937.28;16130225;19;129441;-49
2022/03/31 04:50:01;;;;;;;0.80;0.77;;;;;;;19.62;25.99;99944.22;16134288;19;129418;-47
2022/03/31 04:55:24;;;;;;;0.95;0.70;;;;;;;19.47;25.94;99948.66;16130846;19;128878;-52
2022/03/31 05:00:46;;;;;;;0.68;0.60;;;;;;;19.36;25.96;99952.50;16134962;19;130037;-49
2022/03/31 05:06:08;;;;;;;0.68;0.60;;;;;;;19.23;26.30;99948.31;16129014;19;128870;-48
2022/03/31 05:11:30;;;;;;;0.40;0.40;;;;;;;19.12;26.17;99949.38;16132923;19;129499;-45
2022/03/31 05:16:52;;;;;;;0.77;0.43;;;;;;;19.02;26.08;99948.25;16126885;19;129534;-48
2022/03/31 05:22:14;;;;;;;0.50;0.38;;;;;;;18.94;26.22;99946.00;16131038;19;129819;-47
2022/03/31 05:27:46;;;;;;;0.90;0.57;;;;;;;18.86;26.29;99939.06;16145127;19;129062;-51
2022/03/31 05:33:08;;;;;;;0.22;0.22;;;;;;;18.77;26.55;99944.28;16144898;19;129206;-46
2022/03/31 05:38:30;;;;;;;1.52;0.30;;;;;;;18.79;26.48;99948.72;16147434;19;132022;-49
2022/03/31 05:43:52;;;;;;;1.27;0.50;;;;;;;18.90;26.75;99955.97;16143409;19;129409;-50
2022/03/31 05:49:14;;;;;;;2.60;0.55;;;;;;;19.08;26.61;99951.88;16145643;19;129246;-47
2022/03/31 05:54:36;;;;;;;0.43;0.40;;;;;;;19.22;26.23;99944.72;16146032;19;130044;-46
2022/03/31 05:59:58;;;;;;;1.15;0.60;;;;;;;19.30;26.19;99950.81;16143445;19;129785;-47
2022/03/31 06:05:20;;;;;;;1.30;0.60;;;;;;;19.30;26.44;99957.22;16141095;19;129470;-47
2022/03/31 06:10:42;;;;;;;2.88;0.85;;;;;;;19.29;26.50;99954.69;16143569;19;129337;-45
2022/03/31 06:16:04;;;;;;;3.47;0.47;;;;;;;19.22;26.58;99952.19;16140069;19;129327;-51
2022/03/31 06:21:26;;;;;;;0.52;0.52;;;;;;;19.15;26.76;99954.38;16139397;19;131387;-50
2022/03/31 06:26:48;;;;;;;3.20;0.70;;;;;;;19.05;26.53;99956.03;16135738;19;130193;-48
2022/03/31 06:32:10;;;;;;;1.83;0.80;;;;;;;18.98;26.71;99952.66;16141657;19;129600;-48
2022/03/31 06:37:33;;;;;;;0.82;0.70;;;;;;;18.90;26.73;99965.09;16139357;19;130009;-44
2022/03/31 06:42:55;;;;;;;2.40;0.95;;;;;;;18.83;26.62;99963.72;16141966;19;128998;-51
2022/03/31 06:48:17;;;;;;;1.23;0.85;;;;;;;18.75;26.86;99965.06;16137720;19;131730;-46
2022/03/31 06:53:39;;;;;;;1.50;0.75;;;;;;;18.67;26.86;99985.81;16138755;19;130296;-50
2022/03/31 06:59:01;;;;;;;1.85;0.90;;;;;;;18.58;27.03;99981.88;16139904;19;129041;-46
2022/03/31 07:04:23;;;;;;;0.93;0.88;;;;;;;18.52;26.75;99980.19;16138234;19;128937;-47
2022/03/31 07:09:45;;;;;;;1.10;0.77;;;;;;;18.44;27.25;99979.59;16140829;19;129549;-44
2022/03/31 07:15:08;;;;;;;0.88;0.80;;;;;;;18.37;26.92;99965.09;16138418;19;128854;-48
2022/03/31 07:20:31;;;;;;;1.20;1.00;;;;;;;18.32;26.89;99973.41;16142592;19;129543;-43
2022/03/31 07:25:54;;;;;;;1.25;1.00;;;;;;;18.25;27.15;99970.00;16137174;19;128908;-49
2022/03/31 07:31:15;;;;;;;1.95;1.00;;;;;;;18.20;27.25;99975.53;16135414;19;130704;-46
2022/03/31 07:36:37;;;;;;;1.20;1.10;;;;;;;18.15;27.08;99968.84;16140851;19;130262;-47
2022/03/31 07:41:59;;;;;;;1.45;1.20;;;;;;;18.11;27.14;99973.25;16140206;19;129719;-44
2022/03/31 07:47:21;;;;;;;1.20;1.10;;;;;;;18.08;27.61;99965.50;16132205;19;129443;-45
2022/03/31 07:52:44;;;;;;;1.30;1.00;;;;;;;18.06;27.68;99964.06;16137460;19;130304;-50
2022/03/31 07:58:05;;;;;;;1.20;1.10;;;;;;;18.03;27.49;99976.53;16136809;19;129528;-44
2022/03/31 08:03:27;;;;;;;1.00;1.00;;;;;;;17.98;27.23;99980.09;16137355;19;129558;-46
2022/03/31 08:08:49;;;;;;;2.47;1.10;;;;;;;17.95;27.31;99985.31;16135420;19;130628;-46
2022/03/31 08:14:11;;;;;;;1.70;1.30;;;;;;;17.94;27.78;99992.78;16138136;19;129655;-45
2022/03/31 08:19:33;;;;;;;1.00;1.00;;;;;;;17.91;27.64;99981.41;16138473;19;129408;-46
2022/03/31 08:24:55;;;;;;;0.93;0.90;;;;;;;17.89;27.74;99989.13;16134886;19;129811;-45
2022/03/31 08:30:19;;;;;;;1.35;0.93;;;;;;;17.85;27.47;99994.38;16135342;19;130057;-44
2022/03/31 08:35:41;;;;;;;4.95;1.40;;;;;;;17.84;27.68;99996.31;16130145;19;129544;-44
2022/03/31 08:41:03;;;;;;;5.55;1.40;;;;;;;17.85;27.66;100000.72;16129887;19;129721;-46
2022/03/31 08:46:34;;;;;;;3.10;1.10;;;;;;;17.85;27.95;99997.13;16128964;19;129780;-47
2022/03/31 08:51:56;;;;;;;1.63;0.90;;;;;;;17.83;27.77;100005.72;16131899;19;128883;-46
2022/03/31 08:57:18;;;;;;;3.80;1.33;;;;;;;17.81;27.76;99995.97;16130993;19;130672;-45
2022/03/31 09:03:03;;;;;;;0.95;0.80;;;;;;;17.80;28.04;100003.47;16147412;19;131095;-44
2022/03/31 09:08:25;;;;;;;2.67;1.10;;;;;;;17.78;27.89;100002.88;16148927;19;129314;-48
2022/03/31 09:13:54;;;;;;;2.50;0.80;;;;;;;17.77;28.01;99997.63;16148305;19;129343;-44
2022/03/31 09:19:16;;;;;;;1.60;1.08;;;;;;;17.75;28.08;100003.41;16146607;19;132179;-43
2022/03/31 09:24:39;;;;;;;3.83;0.90;;;;;;;17.73;28.11;100000.06;16146935;19;129212;-45
2022/03/31 09:30:06;;;;;;;2.10;0.80;;;;;;;17.73;28.11;100002.81;16149599;19;129218;-50
2022/03/31 09:35:28;;;;;;;1.42;0.70;;;;;;;17.71;28.14;100002.28;16148033;19;129298;-48
2022/03/31 09:40:49;;;;;;;1.35;0.70;;;;;;;17.71;27.92;99999.50;16146961;19;129481;-52
2022/03/31 09:46:35;;;;;;;2.92;1.08;;;;;;;17.72;27.81;99997.56;16144496;19;129919;-50
2022/03/31 09:52:01;;;;;;;2.13;1.00;;;;;;;17.71;27.94;100001.44;16146408;19;130051;-43
2022/03/31 09:57:23;;;;;;;1.27;0.68;;;;;;;17.73;28.15;100004.78;16141811;19;129039;-45
2022/03/31 10:02:45;;;;;;;1.60;1.05;;;;;;;17.72;27.90;99998.41;16146484;19;129094;-47
2022/03/31 10:08:32;;;;;;;1.30;0.90;;;;;;;17.71;28.31;99990.38;16142482;19;132350;-48
2022/03/31 10:14:18;;;;;;;0.90;0.80;;;;;;;17.72;28.11;99987.34;16142259;19;128969;-49
2022/03/31 10:19:43;;;;;;;1.33;0.93;;;;;;;17.72;28.09;99987.34;16143273;19;129630;-49
2022/03/31 10:25:13;;;;;;;4.07;1.10;;;;;;;17.74;28.21;99978.78;16136286;19;129616;-48
2022/03/31 10:30:38;;;;;;;1.00;0.90;;;;;;;17.72;28.35;99973.53;16141656;19;129734;-46
2022/03/31 10:36:09;;;;;;;0.98;0.88;;;;;;;17.72;28.00;99976.28;16145187;19;131297;-45
2022/03/31 10:41:37;;;;;;;1.45;0.90;;;;;;;17.72;28.23;99989.28;16142499;19;129441;-45
2022/03/31 10:47:02;;;;;;;1.52;0.90;;;;;;;17.71;27.94;99980.16;16138099;19;129377;-44
2022/03/31 10:52:24;;;;;;;1.98;0.80;;;;;;;17.69;28.15;99982.34;16139079;19;128936;-50
2022/03/31 10:57:46;;;;;;;1.23;0.85;;;;;;;17.68;28.22;99983.44;16133628;19;131807;-48
2022/03/31 11:03:08;;;;;;;1.20;0.80;;;;;;;17.67;28.04;99979.00;16133184;19;129118;-48
2022/03/31 11:08:41;;;;;;;0.90;0.70;;;;;;;17.65;28.03;99975.66;16136127;19;129225;-54
2022/03/31 11:14:09;;;;;;;1.80;0.60;;;;;;;17.63;28.00;99972.31;16141921;19;129034;-49
2022/03/31 11:19:36;;;;;;;1.77;0.95;;;;;;;17.62;28.15;99981.69;16141863;19;130123;-47
2022/03/31 11:25:11;;;;;;;1.23;0.73;;;;;;;17.59;28.08;99960.94;16135631;19;129069;-43
2022/03/31 11:30:37;;;;;;;1.13;0.80;;;;;;;17.58;27.92;99952.94;16140789;19;129714;-44
2022/03/31 11:35:59;;;;;;;1.58;0.90;;;;;;;17.58;28.19;99953.75;16141525;19;128982;-43
2022/03/31 11:41:21;;;;;;;1.08;0.70;;;;;;;17.58;27.93;99952.94;16139012;19;129489;-43
2022/03/31 11:47:03;;;;;;;1.83;0.68;;;;;;;17.57;28.00;99956.78;16136179;19;130237;-46
2022/03/31 11:52:32;;;;;;;0.70;0.70;;;;;;;17.56;27.99;99955.13;16139588;19;128933;-43
2022/03/31 11:58:00;;;;;;;0.68;0.57;;;;;;;17.53;28.35;99951.75;16134487;19;128882;-45
2022/03/31 12:03:22;;;;;;;2.97;0.70;;;;;;;17.53;27.94;99946.22;16135804;19;129438;-48
2022/03/31 12:08:46;;;;;;;2.03;0.73;;;;;;;17.54;28.36;99945.16;16134317;19;129460;-48
2022/03/31 12:14:10;;;;;;;1.85;0.77;;;;;;;17.56;28.19;99944.06;16138785;19;128782;-44
2022/03/31 12:19:41;;;;;;;0.95;0.70;;;;;;;17.57;27.95;99941.00;16137787;19;129774;-46
2022/03/31 12:25:03;;;;;;;0.98;0.82;;;;;;;17.54;28.13;99928.56;16135423;19;129565;-47
2022/03/31 12:30:26;;;;;;;0.88;0.60;;;;;;;17.56;27.94;99925.50;16137983;19;129737;-43
2022/03/31 12:36:02;;;;;;;1.13;0.57;;;;;;;17.57;28.27;99913.34;16143976;19;129149;-47
2022/03/31 12:41:33;;;;;;;0.60;0.60;;;;;;;17.57;28.23;99912.53;16150530;19;130091;-44
2022/03/31 12:46:59;;;;;;;1.02;0.70;;;;;;;17.54;27.88;99914.72;16148180;19;129342;-49
2022/03/31 12:52:22;;;;;;;1.13;0.60;;;;;;;17.52;28.19;99922.41;16151198;19;129890;-50
2022/03/31 12:57:55;;;;;;;0.85;0.63;;;;;;;17.51;27.81;99914.41;16147339;19;129870;-49
2022/03/31 13:03:19;;;;;;;0.60;0.60;;;;;;;17.51;27.89;99908.88;16151602;19;129691;-46
2022/03/31 13:08:41;;;;;;;1.23;0.50;;;;;;;17.51;28.31;99909.69;16145967;19;129535;-45
2022/03/31 13:14:02;;;;;;;0.50;0.50;;;;;;;17.51;27.93;99900.56;16150229;19;130454;-43
2022/03/31 13:19:24;;;;;;;0.77;0.60;;;;;;;17.51;28.28;99904.16;16150216;19;129356;-45
2022/03/31 13:24:48;;;;;;;0.93;0.50;;;;;;;17.50;28.11;99896.94;16148160;19;129615;-48
2022/03/31 13:30:12;;;;;;;0.85;0.50;;;;;;;17.51;27.98;99895.84;16148326;19;129483;-46
2022/03/31 13:35:35;;;;;;;0.93;0.50;;;;;;;17.50;28.09;99894.19;16149885;19;130366;-45
2022/03/31 13:41:01;;;;;;;0.93;0.45;;;;;;;17.50;28.27;99905.25;16147893;19;129182;-48
2022/03/31 13:46:24;;;;;;;0.65;0.47;;;;;;;17.50;28.04;99896.13;16143883;19;129832;-50
2022/03/31 13:51:47;;;;;;;0.60;0.40;;;;;;;17.49;28.31;99894.47;16148399;19;129463;-50
2022/03/31 14:02:50;;;;;;;1.38;0.80;;;;;;;17.46;27.93;99894.97;16146874;19;129991;-48
2022/03/31 14:08:12;;;;;;;1.13;0.70;;;;;;;17.46;27.78;99893.06;16143184;19;130421;-48
2022/03/31 14:13:36;;;;;;;1.30;0.82;;;;;;;17.43;28.13;99896.34;16145023;19;129441;-48
2022/03/31 14:18:59;;;;;;;2.10;1.15;;;;;;;17.42;27.87;99889.16;16144391;19;130282;-48
2022/03/31 14:24:21;;;;;;;1.73;0.77;;;;;;;17.39;27.90;99889.66;16142434;19;130301;-44
2022/03/31 14:29:44;;;;;;;1.63;0.80;;;;;;;17.36;27.73;99891.03;16141933;19;129444;-47
2022/03/31 14:35:07;;;;;;;1.17;0.70;;;;;;;17.35;27.82;99875.53;16142908;19;131360;-49
2022/03/31 14:40:29;;;;;;;1.13;0.80;;;;;;;17.36;27.84;99873.59;16137197;19;129668;-46
2022/03/31 14:45:51;;;;;;;1.42;0.90;;;;;;;17.37;27.81;99875.28;16138547;19;129892;-46
2022/03/31 14:51:14;;;;;;;1.42;0.80;;;;;;;17.37;27.91;99869.75;16141460;19;129467;-45
2022/03/31 14:56:37;;;;;;;2.28;0.98;;;;;;;17.36;28.04;99870.84;16139464;19;129642;-45
2022/03/31 15:01:59;;;;;;;1.80;0.90;;;;;;;17.36;28.04;99857.00;16139921;19;130158;-46
2022/03/31 15:07:25;;;;;;;1.70;1.10;;;;;;;17.34;28.10;99857.28;16137194;19;128942;-46
2022/03/31 15:18:27;;;;;;;1.98;0.82;;;;;;;17.36;27.79;99862.53;16135951;19;129532;-47
2022/03/31 15:23:49;;;;;;;1.48;0.95;;;;;;;17.35;28.07;99855.38;16138593;19;129451;-44
2022/03/31 15:29:12;;;;;;;1.63;0.98;;;;;;;17.35;27.68;99858.13;16135456;19;129595;-44
2022/03/31 15:34:34;;;;;;;1.13;0.70;;;;;;;17.33;28.01;99857.56;16137995;19;131562;-43
2022/03/31 15:39:55;;;;;;;1.30;1.20;;;;;;;17.34;27.90;99859.22;16137466;19;131333;-46
2022/03/31 15:45:17;;;;;;;1.52;1.08;;;;;;;17.31;28.32;99855.03;16132093;19;129006;-47
2022/03/31 15:50:40;;;;;;;1.33;0.88;;;;;;;17.32;28.24;99855.91;16135162;19;129322;-44
2022/03/31 15:56:03;;;;;;;2.92;1.00;;;;;;;17.33;28.08;99846.50;16112147;19;129448;-47
2022/03/31 16:01:25;;;;;;;1.63;0.90;;;;;;;17.35;28.30;99852.59;16048767;19;131651;-42
2022/03/31 16:06:47;;;;;;;1.83;0.80;;;;;;;17.46;28.74;99856.28;16136023;19;128912;-41
2022/03/31 16:12:09;;;;;;;4.13;0.98;;;;;;;17.66;29.13;99850.09;16134918;19;130125;-46
2022/03/31 16:17:31;;;;;;;2.95;0.75;;;;;;;17.88;28.59;99858.28;16129953;19;130508;-45
2022/03/31 16:28:46;;;;;;;1.73;0.70;;;;;;;18.55;27.97;99864.13;16127982;19;129418;-48
2022/03/31 16:34:11;;;;;;;1.45;0.60;;;;;;;18.90;27.17;99868.09;16131800;19;129459;-49
2022/03/31 16:39:33;;;;;;;0.73;0.43;;;;;;;19.31;27.14;99872.94;16130933;19;129604;-49
2022/03/31 16:44:55;;;;;;;1.40;0.30;;;;;;;19.71;26.17;99881.50;16131323;19;129674;-47
2022/03/31 16:50:16;;;;;;;1.30;0.50;;;;;;;20.08;26.26;99882.28;16134547;19;130532;-45
2022/03/31 16:55:38;;;;;;;2.20;0.50;;;;;;;20.39;26.09;99896.09;16127329;19;129251;-45
2022/03/31 17:01:00;;;;;;;1.63;0.60;;;;;;;20.70;25.95;99890.38;16127170;19;129795;-53
2022/03/31 17:06:22;;;;;;;0.60;0.30;;;;;;;20.95;25.34;99903.34;16127041;19;131223;-48
2022/03/31 17:11:44;;;;;;;0.70;0.40;;;;;;;21.12;25.33;99902.97;16126368;19;130203;-47
2022/03/31 17:17:05;;;;;;;0.63;0.45;;;;;;;21.12;25.48;99913.25;16130569;19;129309;-49
2022/03/31 17:22:27;;;;;;;1.70;0.40;;;;;;;20.99;25.64;99921.09;16135242;19;129452;-45
2022/03/31 17:27:49;;;;;;;0.50;0.40;;;;;;;20.85;25.73;99920.91;16143199;19;129539;-46
2022/03/31 17:33:12;;;;;;;1.85;0.30;;;;;;;20.73;25.38;99921.22;16144912;19;129105;-44
2022/03/31 17:38:34;;;;;;;2.63;0.50;;;;;;;20.68;25.77;99925.97;16147373;19;129045;-45
2022/03/31 17:43:56;;;;;;;5.30;0.70;;;;;;;20.67;26.13;99924.31;16146687;19;129390;-45
2022/03/31 17:49:20;;;;;;;1.77;0.40;;;;;;;20.68;26.01;99931.50;16141926;19;128867;-46
2022/03/31 17:54:42;;;;;;;0.32;0.20;;;;;;;20.73;25.96;99939.84;16141565;19;129499;-45
2022/03/31 18:00:05;;;;;;;0.45;0.20;;;;;;;20.77;26.20;99945.69;16145853;19;130410;-44
2022/03/31 18:05:27;;;;;;;2.63;0.30;;;;;;;20.77;26.18;99960.44;16147262;19;130186;-45
2022/03/31 18:10:49;;;;;;;1.35;0.43;;;;;;;20.76;26.15;99956.00;16074526;19;132820;-45
2022/03/31 18:16:11;;;;;;;3.00;0.50;;;;;;;20.76;26.19;99961.56;16105625;19;130505;-47
2022/03/31 18:21:35;;;;;;;2.30;0.30;;;;;;;20.69;25.82;99955.41;16143908;19;129270;-44
2022/03/31 18:26:58;;;;;;;0.40;0.40;;;;;;;20.68;26.04;99960.16;16142278;19;128959;-44
2022/03/31 18:38:02;;;;;;;0.40;0.30;;;;;;;21.33;25.19;99964.00;16146130;19;129548;-47
2022/03/31 18:43:25;;;;;;;0.45;0.28;;;;;;;21.71;25.16;99963.50;16144116;19;129828;-47
2022/03/31 18:48:48;;;;;;;0.40;0.28;;;;;;;22.01;24.98;99969.91;16139424;19;130084;-45
2022/03/31 18:54:13;;;;;;;4.70;0.60;;;;;;;22.18;24.57;99972.25;16134365;19;129384;-45
2022/03/31 18:59:35;;;;;;;6.22;0.47;;;;;;;22.34;24.49;99982.16;16140394;19;129303;-47
2022/03/31 19:04:57;;;;;;;3.38;0.52;;;;;;;22.49;24.61;99971.97;16140833;19;130356;-47
2022/03/31 19:10:22;;;;;;;0.95;0.20;;;;;;;22.63;24.42;99972.94;16136853;19;129434;-45
2022/03/31 19:15:47;;;;;;;3.08;0.30;;;;;;;22.76;24.34;99964.97;16136402;19;129208;-49
2022/03/31 19:21:09;;;;;;;3.63;0.40;;;;;;;22.92;24.64;99974.00;16141770;19;130490;-48
2022/03/31 19:26:33;;;;;;;1.67;0.22;;;;;;;22.96;24.54;99975.91;16137941;19;129472;-52
2022/03/31 19:31:55;;;;;;;5.50;0.45;;;;;;;22.84;24.78;99973.50;16138945;19;129443;-45
2022/03/31 19:37:18;;;;;;;6.75;0.60;;;;;;;22.70;24.75;99978.16;16135651;19;129712;-47
2022/03/31 19:42:48;;;;;;;6.22;0.50;;;;;;;22.54;25.01;99977.47;16138574;19;129148;-46
2022/03/31 19:48:11;;;;;;;3.35;0.55;;;;;;;22.43;25.43;99980.38;16134172;19;129183;-47
2022/03/31 19:53:37;;;;;;;3.33;0.35;;;;;;;22.35;25.63;99999.69;16135761;19;129530;-45
2022/03/31 19:59:03;;;;;;;6.40;0.63;;;;;;;22.28;25.59;100000.03;16137846;19;129537;-45
2022/03/31 20:04:25;;;;;;;5.78;0.40;;;;;;;22.19;25.67;99999.84;16135896;19;129778;-45
2022/03/31 20:09:47;;;;;;;10.52;0.52;;;;;;;22.10;26.04;100005.22;16132686;19;129508;-46
2022/03/31 20:15:09;;;;;;;2.60;0.55;;;;;;;21.97;25.96;99994.75;16136420;19;130324;-48
2022/03/31 20:20:31;;;;;;;1.70;0.57;;;;;;;21.86;26.45;99995.97;16137867;19;129086;-45
2022/03/31 20:25:53;;;;;;;7.47;0.57;;;;;;;21.83;26.45;99992.63;16136005;19;132406;-47
2022/03/31 20:31:15;;;;;;;4.05;0.57;;;;;;;21.79;26.55;99985.97;16137721;19;131384;-47
2022/03/31 20:36:37;;;;;;;0.68;0.30;;;;;;;21.80;26.44;99984.03;16133292;19;129811;-45
2022/03/31 20:41:59;;;;;;;3.33;0.40;;;;;;;21.74;26.51;99990.75;16134915;19;129624;-47
2022/03/31 20:47:22;;;;;;;4.70;0.45;;;;;;;21.65;26.72;99990.56;16129569;19;129043;-47
2022/03/31 20:52:46;;;;;;;1.20;0.30;;;;;;;21.47;26.56;99995.66;16130463;19;130065;-47
2022/03/31 20:58:08;;;;;;;4.78;0.40;;;;;;;21.30;26.53;99995.19;16142452;19;130956;-45
2022/03/31 21:03:30;;;;;;;1.27;0.60;;;;;;;21.12;26.70;99986.41;16146022;19;130531;-47
2022/03/31 21:08:52;;;;;;;5.00;0.43;;;;;;;20.97;27.18;99994.81;16144895;19;129574;-47
2022/03/31 21:14:14;;;;;;;2.45;0.40;;;;;;;20.84;27.06;99985.16;16147369;19;129427;-45
2022/03/31 21:19:37;;;;;;;3.38;0.60;;;;;;;20.70;26.99;99984.88;16146712;19;129978;-51
2022/03/31 21:24:59;;;;;;;1.13;0.30;;;;;;;20.57;27.57;99995.47;16145984;19;129558;-44
2022/03/31 21:30:21;;;;;;;1.25;0.40;;;;;;;20.46;27.64;99993.84;16141637;19;129126;-47
2022/03/31 21:35:43;;;;;;;3.95;0.47;;;;;;;20.35;27.50;99997.75;16141810;19;129227;-48
2022/03/31 21:41:05;;;;;;;1.90;0.47;;;;;;;20.25;27.81;99980.00;16147916;19;129552;-45
2022/03/31 21:46:26;;;;;;;0.68;0.35;;;;;;;20.14;27.74;99984.72;16144511;19;129519;-46
2022/03/31 21:51:48;;;;;;;1.98;0.60;;;;;;;20.07;27.84;99984.19;16147293;19;130308;-46
2022/03/31 21:57:11;;;;;;;0.52;0.30;;;;;;;19.99;27.76;99991.13;16140485;19;129205;-44
2022/03/31 22:02:34;;;;;;;0.85;0.50;;;;;;;19.91;27.66;100000.00;16145121;19;129569;-47
2022/03/31 22:11:33;;;;;;;0.68;0.50;;;;;;;19.83;28.32;100000.53;16141005;19;129089;-44
2022/03/31 22:13:38;;;;;;;0.40;0.30;;;;;;;19.76;28.16;100000.00;16143121;19;130477;-45
2022/03/31 22:19:01;;;;;;;0.40;0.30;;;;;;;19.71;27.90;100002.75;16143800;19;129146;-46
2022/03/31 22:24:25;;;;;;;1.00;0.30;;;;;;;19.60;27.94;100002.75;16144521;19;129790;-44
2022/03/31 22:29:49;;;;;;;0.63;0.40;;;;;;;19.55;28.38;100004.69;16139243;19;129438;-44
2022/03/31 22:35:11;;;;;;;0.95;0.30;;;;;;;19.48;28.01;100018.81;16143313;19;129286;-46
2022/03/31 22:40:33;;;;;;;1.08;0.40;;;;;;;19.44;27.92;100020.50;16143131;19;129070;-47
2022/03/31 22:45:55;;;;;;;0.63;0.40;;;;;;;19.36;28.46;100025.44;16138752;19;129900;-45
2022/03/31 22:51:17;;;;;;;0.50;0.40;;;;;;;19.31;28.24;100021.81;16136990;19;129825;-45
2022/03/31 22:56:39;;;;;;;0.68;0.50;;;;;;;19.24;27.87;100021.25;16138987;19;130000;-47
2022/03/31 23:02:01;;;;;;;2.58;0.60;;;;;;;19.17;27.96;100027.84;16142401;19;129626;-47
2022/03/31 23:07:25;;;;;;;0.40;0.30;;;;;;;19.11;28.18;100028.94;16141230;19;129410;-47
2022/03/31 23:12:47;;;;;;;0.30;0.30;;;;;;;19.06;27.74;100049.19;16142107;19;129427;-45
2022/03/31 23:18:17;;;;;;;0.50;0.35;;;;;;;19.02;27.63;100048.03;16140665;19;129091;-47
2022/03/31 23:23:39;;;;;;;0.40;0.40;;;;;;;18.95;27.68;100047.47;16140897;19;131249;-45
2022/03/31 23:29:02;;;;;;;0.47;0.40;;;;;;;18.88;27.58;100038.53;16136924;19;129799;-44
2022/03/31 23:34:24;;;;;;;0.28;0.28;;;;;;;18.82;27.65;100059.03;16140048;19;131396;-46
2022/03/31 23:39:45;;;;;;;0.30;0.30;;;;;;;18.80;28.02;100055.69;16136982;19;128917;-45
2022/03/31 23:45:10;;;;;;;0.50;0.50;;;;;;;18.75;27.91;100065.63;16136118;19;130072;-44
2022/03/31 23:50:32;;;;;;;0.40;0.40;;;;;;;18.69;27.69;100069.50;16134991;19;128860;-49
2022/03/31 23:55:54;;;;;;;0.30;0.30;;;;;;;18.68;27.88;100070.59;16135419;19;129810;-49
